sensor_id;sensor_type;location;lat;lon;timestamp;P1;durP1;ratioP1;P2;durP2;ratioP2
79456;SDS011;69494;43.654;3.884;2024-02-21T00:01:16;9.95;;;3.95;;
79456;SDS011;69494;43.654;3.884;2024-02-21T00:03:41;5.80;;;2.83;;
79456;SDS011;69494;43.654;3.884;2024-02-21T00:06:07;8.57;;;3.70;;
79456;SDS011;69494;43.654;3.884;2024-02-21T00:08:32;10.80;;;3.47;;
79456;SDS011;69494;43.654;3.884;2024-02-21T00:10:58;8.13;;;3.42;;
79456;SDS011;69494;43.654;3.884;2024-02-21T00:13:23;7.82;;;3.25;;
79456;SDS011;69494;43.654;3.884;2024-02-21T00:15:49;7.18;;;3.30;;
79456;SDS011;69494;43.654;3.884;2024-02-21T00:18:15;8.35;;;3.13;;
79456;SDS011;69494;43.654;3.884;2024-02-21T00:20:40;10.68;;;3.50;;
79456;SDS011;69494;43.654;3.884;2024-02-21T00:23:05;7.03;;;3.15;;
79456;SDS011;69494;43.654;3.884;2024-02-21T00:25:31;9.18;;;3.20;;
79456;SDS011;69494;43.654;3.884;2024-02-21T00:27:56;7.03;;;3.22;;
79456;SDS011;69494;43.654;3.884;2024-02-21T00:30:21;6.00;;;3.08;;
79456;SDS011;69494;43.654;3.884;2024-02-21T00:32:47;9.70;;;3.75;;
79456;SDS011;69494;43.654;3.884;2024-02-21T00:35:13;9.50;;;3.42;;
79456;SDS011;69494;43.654;3.884;2024-02-21T00:37:39;7.20;;;3.20;;
79456;SDS011;69494;43.654;3.884;2024-02-21T00:40:04;6.53;;;3.00;;
79456;SDS011;69494;43.654;3.884;2024-02-21T00:44:58;6.27;;;3.43;;
79456;SDS011;69494;43.654;3.884;2024-02-21T00:47:23;8.65;;;3.45;;
79456;SDS011;69494;43.654;3.884;2024-02-21T00:49:48;11.13;;;3.72;;
79456;SDS011;69494;43.654;3.884;2024-02-21T00:52:14;8.57;;;3.75;;
79456;SDS011;69494;43.654;3.884;2024-02-21T00:54:39;8.95;;;3.63;;
79456;SDS011;69494;43.654;3.884;2024-02-21T00:57:04;6.47;;;3.15;;
79456;SDS011;69494;43.654;3.884;2024-02-21T00:59:30;8.55;;;3.20;;
79456;SDS011;69494;43.654;3.884;2024-02-21T01:01:55;7.63;;;3.45;;
79456;SDS011;69494;43.654;3.884;2024-02-21T01:04:20;7.25;;;3.10;;
79456;SDS011;69494;43.654;3.884;2024-02-21T01:06:46;8.18;;;3.28;;
79456;SDS011;69494;43.654;3.884;2024-02-21T01:09:11;4.97;;;1.90;;
79456;SDS011;69494;43.654;3.884;2024-02-21T01:11:36;5.03;;;1.83;;
79456;SDS011;69494;43.654;3.884;2024-02-21T01:14:02;5.18;;;1.83;;
79456;SDS011;69494;43.654;3.884;2024-02-21T01:16:27;5.25;;;2.08;;
79456;SDS011;69494;43.654;3.884;2024-02-21T01:18:53;3.60;;;1.23;;
79456;SDS011;69494;43.654;3.884;2024-02-21T01:21:18;3.33;;;1.40;;
79456;SDS011;69494;43.654;3.884;2024-02-21T01:23:44;5.40;;;1.75;;
79456;SDS011;69494;43.654;3.884;2024-02-21T01:26:09;4.28;;;1.30;;
79456;SDS011;69494;43.654;3.884;2024-02-21T01:28:38;5.00;;;1.95;;
79456;SDS011;69494;43.654;3.884;2024-02-21T01:31:03;2.22;;;1.10;;
79456;SDS011;69494;43.654;3.884;2024-02-21T01:33:28;4.82;;;1.30;;
79456;SDS011;69494;43.654;3.884;2024-02-21T01:35:59;2.83;;;1.10;;
79456;SDS011;69494;43.654;3.884;2024-02-21T01:38:25;4.32;;;1.05;;
79456;SDS011;69494;43.654;3.884;2024-02-21T01:40:50;2.58;;;1.00;;
79456;SDS011;69494;43.654;3.884;2024-02-21T01:43:16;2.90;;;1.02;;
79456;SDS011;69494;43.654;3.884;2024-02-21T01:45:54;4.78;;;1.60;;
79456;SDS011;69494;43.654;3.884;2024-02-21T01:48:23;7.30;;;1.98;;
79456;SDS011;69494;43.654;3.884;2024-02-21T01:50:50;5.07;;;2.20;;
79456;SDS011;69494;43.654;3.884;2024-02-21T01:53:16;5.20;;;2.20;;
79456;SDS011;69494;43.654;3.884;2024-02-21T01:55:46;5.70;;;1.90;;
79456;SDS011;69494;43.654;3.884;2024-02-21T01:58:15;5.80;;;1.80;;
79456;SDS011;69494;43.654;3.884;2024-02-21T02:00:45;5.18;;;1.90;;
79456;SDS011;69494;43.654;3.884;2024-02-21T02:03:11;6.35;;;1.90;;
79456;SDS011;69494;43.654;3.884;2024-02-21T02:05:47;3.80;;;1.40;;
79456;SDS011;69494;43.654;3.884;2024-02-21T02:08:15;5.65;;;1.98;;
79456;SDS011;69494;43.654;3.884;2024-02-21T02:10:41;7.53;;;1.95;;
79456;SDS011;69494;43.654;3.884;2024-02-21T02:13:06;6.53;;;1.90;;
79456;SDS011;69494;43.654;3.884;2024-02-21T02:15:42;5.68;;;1.73;;
79456;SDS011;69494;43.654;3.884;2024-02-21T02:18:12;4.38;;;1.50;;
79456;SDS011;69494;43.654;3.884;2024-02-21T02:20:38;5.05;;;2.05;;
79456;SDS011;69494;43.654;3.884;2024-02-21T02:25:45;3.72;;;1.55;;
79456;SDS011;69494;43.654;3.884;2024-02-21T02:28:14;4.88;;;1.60;;
79456;SDS011;69494;43.654;3.884;2024-02-21T02:30:40;4.03;;;1.45;;
79456;SDS011;69494;43.654;3.884;2024-02-21T02:33:05;4.88;;;1.70;;
79456;SDS011;69494;43.654;3.884;2024-02-21T02:35:31;4.15;;;1.92;;
79456;SDS011;69494;43.654;3.884;2024-02-21T02:37:57;5.78;;;2.05;;
79456;SDS011;69494;43.654;3.884;2024-02-21T02:40:23;4.95;;;1.85;;
79456;SDS011;69494;43.654;3.884;2024-02-21T02:42:49;4.50;;;1.80;;
79456;SDS011;69494;43.654;3.884;2024-02-21T02:45:15;5.25;;;1.98;;
79456;SDS011;69494;43.654;3.884;2024-02-21T02:47:41;4.30;;;1.58;;
79456;SDS011;69494;43.654;3.884;2024-02-21T02:50:07;4.07;;;1.70;;
79456;SDS011;69494;43.654;3.884;2024-02-21T02:52:33;4.10;;;1.80;;
79456;SDS011;69494;43.654;3.884;2024-02-21T02:54:58;4.47;;;1.48;;
79456;SDS011;69494;43.654;3.884;2024-02-21T02:57:24;4.70;;;1.40;;
79456;SDS011;69494;43.654;3.884;2024-02-21T02:59:50;5.07;;;1.60;;
79456;SDS011;69494;43.654;3.884;2024-02-21T03:02:16;3.85;;;1.45;;
79456;SDS011;69494;43.654;3.884;2024-02-21T03:04:42;5.45;;;1.73;;
79456;SDS011;69494;43.654;3.884;2024-02-21T03:07:07;4.10;;;1.65;;
79456;SDS011;69494;43.654;3.884;2024-02-21T03:09:33;9.18;;;2.22;;
79456;SDS011;69494;43.654;3.884;2024-02-21T03:11:58;5.75;;;2.17;;
79456;SDS011;69494;43.654;3.884;2024-02-21T03:14:30;6.22;;;2.33;;
79456;SDS011;69494;43.654;3.884;2024-02-21T03:16:56;5.30;;;2.42;;
79456;SDS011;69494;43.654;3.884;2024-02-21T03:19:22;4.85;;;2.00;;
79456;SDS011;69494;43.654;3.884;2024-02-21T03:21:47;5.57;;;1.85;;
79456;SDS011;69494;43.654;3.884;2024-02-21T03:24:14;7.43;;;2.03;;
79456;SDS011;69494;43.654;3.884;2024-02-21T03:26:40;5.70;;;2.13;;
79456;SDS011;69494;43.654;3.884;2024-02-21T03:29:05;9.50;;;2.05;;
79456;SDS011;69494;43.654;3.884;2024-02-21T03:31:31;7.10;;;1.90;;
79456;SDS011;69494;43.654;3.884;2024-02-21T03:33:56;5.45;;;1.63;;
79456;SDS011;69494;43.654;3.884;2024-02-21T03:36:22;5.10;;;1.98;;
79456;SDS011;69494;43.654;3.884;2024-02-21T03:38:47;3.65;;;1.58;;
79456;SDS011;69494;43.654;3.884;2024-02-21T03:41:13;3.75;;;1.55;;
79456;SDS011;69494;43.654;3.884;2024-02-21T03:43:38;4.47;;;1.85;;
79456;SDS011;69494;43.654;3.884;2024-02-21T03:46:04;3.88;;;1.50;;
79456;SDS011;69494;43.654;3.884;2024-02-21T03:48:29;4.35;;;1.50;;
79456;SDS011;69494;43.654;3.884;2024-02-21T03:50:55;4.30;;;1.40;;
79456;SDS011;69494;43.654;3.884;2024-02-21T03:53:20;5.57;;;1.55;;
79456;SDS011;69494;43.654;3.884;2024-02-21T03:55:45;5.40;;;1.75;;
79456;SDS011;69494;43.654;3.884;2024-02-21T03:58:11;3.45;;;1.50;;
79456;SDS011;69494;43.654;3.884;2024-02-21T04:00:36;5.57;;;1.60;;
79456;SDS011;69494;43.654;3.884;2024-02-21T04:03:02;4.18;;;1.40;;
79456;SDS011;69494;43.654;3.884;2024-02-21T04:05:27;4.68;;;1.50;;
79456;SDS011;69494;43.654;3.884;2024-02-21T04:07:53;5.90;;;1.55;;
79456;SDS011;69494;43.654;3.884;2024-02-21T04:10:18;6.35;;;1.70;;
79456;SDS011;69494;43.654;3.884;2024-02-21T04:12:44;5.20;;;1.90;;
79456;SDS011;69494;43.654;3.884;2024-02-21T04:15:09;4.40;;;1.42;;
79456;SDS011;69494;43.654;3.884;2024-02-21T04:17:35;4.18;;;1.40;;
79456;SDS011;69494;43.654;3.884;2024-02-21T04:20:04;6.13;;;1.67;;
79456;SDS011;69494;43.654;3.884;2024-02-21T04:22:33;4.15;;;1.70;;
79456;SDS011;69494;43.654;3.884;2024-02-21T04:24:59;2.88;;;1.23;;
79456;SDS011;69494;43.654;3.884;2024-02-21T04:27:25;4.60;;;1.63;;
79456;SDS011;69494;43.654;3.884;2024-02-21T04:29:52;2.53;;;1.02;;
79456;SDS011;69494;43.654;3.884;2024-02-21T04:32:17;2.08;;;1.00;;
79456;SDS011;69494;43.654;3.884;2024-02-21T04:34:43;4.05;;;1.45;;
79456;SDS011;69494;43.654;3.884;2024-02-21T04:37:08;3.95;;;1.40;;
79456;SDS011;69494;43.654;3.884;2024-02-21T04:39:34;4.68;;;1.55;;
79456;SDS011;69494;43.654;3.884;2024-02-21T04:41:59;6.30;;;1.67;;
79456;SDS011;69494;43.654;3.884;2024-02-21T04:44:24;5.18;;;1.58;;
79456;SDS011;69494;43.654;3.884;2024-02-21T04:46:50;4.20;;;1.52;;
79456;SDS011;69494;43.654;3.884;2024-02-21T04:49:15;6.20;;;1.88;;
79456;SDS011;69494;43.654;3.884;2024-02-21T04:51:40;7.13;;;1.88;;
79456;SDS011;69494;43.654;3.884;2024-02-21T04:54:06;4.90;;;2.08;;
79456;SDS011;69494;43.654;3.884;2024-02-21T04:56:31;6.47;;;2.20;;
79456;SDS011;69494;43.654;3.884;2024-02-21T04:58:57;6.68;;;1.90;;
79456;SDS011;69494;43.654;3.884;2024-02-21T05:01:22;4.80;;;1.70;;
79456;SDS011;69494;43.654;3.884;2024-02-21T05:03:47;6.28;;;2.15;;
79456;SDS011;69494;43.654;3.884;2024-02-21T05:06:13;5.25;;;2.40;;
79456;SDS011;69494;43.654;3.884;2024-02-21T05:08:38;6.07;;;2.85;;
79456;SDS011;69494;43.654;3.884;2024-02-21T05:11:03;5.38;;;2.20;;
79456;SDS011;69494;43.654;3.884;2024-02-21T05:13:29;6.50;;;1.85;;
79456;SDS011;69494;43.654;3.884;2024-02-21T05:15:54;4.95;;;1.67;;
79456;SDS011;69494;43.654;3.884;2024-02-21T05:18:19;5.70;;;1.80;;
79456;SDS011;69494;43.654;3.884;2024-02-21T05:20:45;5.60;;;2.15;;
79456;SDS011;69494;43.654;3.884;2024-02-21T05:23:11;3.95;;;1.40;;
79456;SDS011;69494;43.654;3.884;2024-02-21T05:25:37;4.75;;;1.70;;
79456;SDS011;69494;43.654;3.884;2024-02-21T05:28:02;6.88;;;2.17;;
79456;SDS011;69494;43.654;3.884;2024-02-21T05:30:28;5.45;;;1.60;;
79456;SDS011;69494;43.654;3.884;2024-02-21T05:32:54;4.72;;;1.55;;
79456;SDS011;69494;43.654;3.884;2024-02-21T05:35:19;4.85;;;1.63;;
79456;SDS011;69494;43.654;3.884;2024-02-21T05:37:49;5.50;;;1.80;;
79456;SDS011;69494;43.654;3.884;2024-02-21T05:40:17;5.45;;;1.60;;
79456;SDS011;69494;43.654;3.884;2024-02-21T05:42:43;4.18;;;1.77;;
79456;SDS011;69494;43.654;3.884;2024-02-21T05:45:08;4.05;;;1.63;;
79456;SDS011;69494;43.654;3.884;2024-02-21T05:47:34;5.18;;;1.70;;
79456;SDS011;69494;43.654;3.884;2024-02-21T05:49:59;6.20;;;2.00;;
79456;SDS011;69494;43.654;3.884;2024-02-21T05:52:25;7.82;;;1.63;;
79456;SDS011;69494;43.654;3.884;2024-02-21T05:54:50;4.90;;;1.85;;
79456;SDS011;69494;43.654;3.884;2024-02-21T05:57:16;7.15;;;1.45;;
79456;SDS011;69494;43.654;3.884;2024-02-21T05:59:43;3.75;;;1.42;;
79456;SDS011;69494;43.654;3.884;2024-02-21T06:02:08;3.35;;;1.23;;
79456;SDS011;69494;43.654;3.884;2024-02-21T06:04:34;2.88;;;1.02;;
79456;SDS011;69494;43.654;3.884;2024-02-21T06:07:00;3.30;;;1.27;;
79456;SDS011;69494;43.654;3.884;2024-02-21T06:09:25;3.65;;;1.40;;
79456;SDS011;69494;43.654;3.884;2024-02-21T06:11:51;7.18;;;1.40;;
79456;SDS011;69494;43.654;3.884;2024-02-21T06:14:16;7.20;;;1.73;;
79456;SDS011;69494;43.654;3.884;2024-02-21T06:16:43;3.53;;;1.48;;
79456;SDS011;69494;43.654;3.884;2024-02-21T06:19:09;5.45;;;2.00;;
79456;SDS011;69494;43.654;3.884;2024-02-21T06:21:34;6.22;;;1.70;;
79456;SDS011;69494;43.654;3.884;2024-02-21T06:24:00;4.60;;;1.70;;
79456;SDS011;69494;43.654;3.884;2024-02-21T06:26:25;4.38;;;1.50;;
79456;SDS011;69494;43.654;3.884;2024-02-21T06:28:51;7.05;;;1.70;;
79456;SDS011;69494;43.654;3.884;2024-02-21T06:31:16;5.07;;;1.70;;
79456;SDS011;69494;43.654;3.884;2024-02-21T06:33:42;4.68;;;1.67;;
79456;SDS011;69494;43.654;3.884;2024-02-21T06:36:08;4.20;;;1.73;;
79456;SDS011;69494;43.654;3.884;2024-02-21T06:38:33;4.78;;;1.75;;
79456;SDS011;69494;43.654;3.884;2024-02-21T06:41:01;4.20;;;1.48;;
79456;SDS011;69494;43.654;3.884;2024-02-21T06:43:27;9.38;;;1.67;;
79456;SDS011;69494;43.654;3.884;2024-02-21T06:45:53;5.97;;;1.55;;
79456;SDS011;69494;43.654;3.884;2024-02-21T06:48:20;4.93;;;1.58;;
79456;SDS011;69494;43.654;3.884;2024-02-21T06:50:45;3.63;;;1.38;;
79456;SDS011;69494;43.654;3.884;2024-02-21T06:53:11;7.07;;;2.22;;
79456;SDS011;69494;43.654;3.884;2024-02-21T06:55:36;4.25;;;1.50;;
79456;SDS011;69494;43.654;3.884;2024-02-21T06:58:02;5.70;;;1.65;;
79456;SDS011;69494;43.654;3.884;2024-02-21T07:00:30;2.50;;;1.08;;
79456;SDS011;69494;43.654;3.884;2024-02-21T07:02:56;4.18;;;1.83;;
79456;SDS011;69494;43.654;3.884;2024-02-21T07:05:21;5.13;;;1.85;;
79456;SDS011;69494;43.654;3.884;2024-02-21T07:07:47;4.63;;;1.77;;
79456;SDS011;69494;43.654;3.884;2024-02-21T07:10:12;5.50;;;1.80;;
79456;SDS011;69494;43.654;3.884;2024-02-21T07:12:38;3.33;;;1.30;;
79456;SDS011;69494;43.654;3.884;2024-02-21T07:15:07;5.50;;;1.65;;
79456;SDS011;69494;43.654;3.884;2024-02-21T07:17:32;4.72;;;1.50;;
79456;SDS011;69494;43.654;3.884;2024-02-21T07:19:57;6.53;;;1.70;;
79456;SDS011;69494;43.654;3.884;2024-02-21T07:22:24;3.28;;;1.23;;
79456;SDS011;69494;43.654;3.884;2024-02-21T07:24:49;3.65;;;1.42;;
79456;SDS011;69494;43.654;3.884;2024-02-21T07:27:15;4.85;;;1.52;;
79456;SDS011;69494;43.654;3.884;2024-02-21T07:29:40;5.93;;;2.13;;
79456;SDS011;69494;43.654;3.884;2024-02-21T07:32:06;8.70;;;2.00;;
79456;SDS011;69494;43.654;3.884;2024-02-21T07:34:31;6.15;;;1.60;;
79456;SDS011;69494;43.654;3.884;2024-02-21T07:36:57;6.80;;;1.45;;
79456;SDS011;69494;43.654;3.884;2024-02-21T07:39:22;5.60;;;1.70;;
79456;SDS011;69494;43.654;3.884;2024-02-21T07:41:48;6.50;;;2.10;;
79456;SDS011;69494;43.654;3.884;2024-02-21T07:44:14;8.50;;;2.20;;
79456;SDS011;69494;43.654;3.884;2024-02-21T07:46:40;5.40;;;1.45;;
79456;SDS011;69494;43.654;3.884;2024-02-21T07:49:05;3.80;;;1.27;;
79456;SDS011;69494;43.654;3.884;2024-02-21T07:51:31;6.00;;;1.70;;
79456;SDS011;69494;43.654;3.884;2024-02-21T07:53:56;5.75;;;2.33;;
79456;SDS011;69494;43.654;3.884;2024-02-21T07:56:21;5.75;;;2.35;;
79456;SDS011;69494;43.654;3.884;2024-02-21T07:58:47;7.00;;;2.42;;
79456;SDS011;69494;43.654;3.884;2024-02-21T08:01:18;5.93;;;2.28;;
79456;SDS011;69494;43.654;3.884;2024-02-21T08:03:46;4.32;;;2.05;;
79456;SDS011;69494;43.654;3.884;2024-02-21T08:06:12;7.03;;;2.00;;
79456;SDS011;69494;43.654;3.884;2024-02-21T08:08:38;6.18;;;1.92;;
79456;SDS011;69494;43.654;3.884;2024-02-21T08:11:04;4.75;;;1.95;;
79456;SDS011;69494;43.654;3.884;2024-02-21T08:13:29;6.13;;;1.70;;
79456;SDS011;69494;43.654;3.884;2024-02-21T08:15:55;4.25;;;1.67;;
79456;SDS011;69494;43.654;3.884;2024-02-21T08:18:22;6.57;;;1.42;;
79456;SDS011;69494;43.654;3.884;2024-02-21T08:20:47;6.18;;;1.80;;
79456;SDS011;69494;43.654;3.884;2024-02-21T08:23:15;5.90;;;2.17;;
79456;SDS011;69494;43.654;3.884;2024-02-21T08:25:41;4.78;;;1.63;;
79456;SDS011;69494;43.654;3.884;2024-02-21T08:28:06;3.25;;;1.23;;
79456;SDS011;69494;43.654;3.884;2024-02-21T08:30:33;4.47;;;1.30;;
79456;SDS011;69494;43.654;3.884;2024-02-21T08:32:59;8.80;;;2.03;;
79456;SDS011;69494;43.654;3.884;2024-02-21T08:35:24;3.50;;;1.38;;
79456;SDS011;69494;43.654;3.884;2024-02-21T08:37:49;6.68;;;1.40;;
79456;SDS011;69494;43.654;3.884;2024-02-21T08:40:15;6.63;;;1.80;;
79456;SDS011;69494;43.654;3.884;2024-02-21T08:42:44;4.10;;;1.63;;
79456;SDS011;69494;43.654;3.884;2024-02-21T08:45:10;5.70;;;1.58;;
79456;SDS011;69494;43.654;3.884;2024-02-21T08:47:35;3.17;;;1.33;;
79456;SDS011;69494;43.654;3.884;2024-02-21T08:50:02;2.92;;;1.30;;
79456;SDS011;69494;43.654;3.884;2024-02-21T08:52:27;3.97;;;1.70;;
79456;SDS011;69494;43.654;3.884;2024-02-21T08:54:53;5.03;;;1.95;;
79456;SDS011;69494;43.654;3.884;2024-02-21T08:57:18;4.30;;;2.13;;
79456;SDS011;69494;43.654;3.884;2024-02-21T08:59:44;3.70;;;1.27;;
79456;SDS011;69494;43.654;3.884;2024-02-21T09:02:10;9.25;;;1.65;;
79456;SDS011;69494;43.654;3.884;2024-02-21T09:04:35;3.00;;;1.23;;
79456;SDS011;69494;43.654;3.884;2024-02-21T09:07:00;2.63;;;1.10;;
79456;SDS011;69494;43.654;3.884;2024-02-21T09:09:26;2.72;;;1.10;;
79456;SDS011;69494;43.654;3.884;2024-02-21T09:11:53;4.35;;;1.20;;
79456;SDS011;69494;43.654;3.884;2024-02-21T09:14:18;2.72;;;1.17;;
79456;SDS011;69494;43.654;3.884;2024-02-21T09:16:44;2.45;;;0.90;;
79456;SDS011;69494;43.654;3.884;2024-02-21T09:19:09;3.33;;;1.10;;
79456;SDS011;69494;43.654;3.884;2024-02-21T09:21:38;2.00;;;1.13;;
79456;SDS011;69494;43.654;3.884;2024-02-21T09:24:04;2.97;;;1.05;;
79456;SDS011;69494;43.654;3.884;2024-02-21T09:26:30;3.22;;;1.05;;
79456;SDS011;69494;43.654;3.884;2024-02-21T09:28:56;2.13;;;0.88;;
79456;SDS011;69494;43.654;3.884;2024-02-21T09:31:21;3.30;;;1.10;;
79456;SDS011;69494;43.654;3.884;2024-02-21T09:33:47;2.63;;;1.00;;
79456;SDS011;69494;43.654;3.884;2024-02-21T09:36:12;2.40;;;1.00;;
79456;SDS011;69494;43.654;3.884;2024-02-21T09:38:39;3.20;;;1.08;;
79456;SDS011;69494;43.654;3.884;2024-02-21T09:41:17;3.20;;;1.20;;
79456;SDS011;69494;43.654;3.884;2024-02-21T09:43:49;2.28;;;0.90;;
79456;SDS011;69494;43.654;3.884;2024-02-21T09:46:16;1.52;;;0.60;;
79456;SDS011;69494;43.654;3.884;2024-02-21T09:51:38;3.28;;;0.95;;
79456;SDS011;69494;43.654;3.884;2024-02-21T09:54:05;1.67;;;0.70;;
79456;SDS011;69494;43.654;3.884;2024-02-21T09:56:32;2.53;;;0.80;;
79456;SDS011;69494;43.654;3.884;2024-02-21T09:58:58;3.03;;;1.00;;
79456;SDS011;69494;43.654;3.884;2024-02-21T10:01:24;2.28;;;0.90;;
79456;SDS011;69494;43.654;3.884;2024-02-21T10:03:49;3.30;;;0.98;;
79456;SDS011;69494;43.654;3.884;2024-02-21T10:06:15;1.80;;;0.90;;
79456;SDS011;69494;43.654;3.884;2024-02-21T10:08:40;2.63;;;0.82;;
79456;SDS011;69494;43.654;3.884;2024-02-21T10:11:05;1.88;;;0.80;;
79456;SDS011;69494;43.654;3.884;2024-02-21T10:13:33;2.58;;;0.73;;
79456;SDS011;69494;43.654;3.884;2024-02-21T10:18:28;2.58;;;1.05;;
79456;SDS011;69494;43.654;3.884;2024-02-21T10:21:06;3.10;;;1.20;;
79456;SDS011;69494;43.654;3.884;2024-02-21T10:23:45;4.72;;;1.30;;
79456;SDS011;69494;43.654;3.884;2024-02-21T10:26:11;3.13;;;0.85;;
79456;SDS011;69494;43.654;3.884;2024-02-21T10:28:39;1.67;;;0.82;;
79456;SDS011;69494;43.654;3.884;2024-02-21T10:31:07;3.65;;;1.30;;
79456;SDS011;69494;43.654;3.884;2024-02-21T10:33:34;4.57;;;1.00;;
79456;SDS011;69494;43.654;3.884;2024-02-21T10:36:06;1.65;;;0.75;;
79456;SDS011;69494;43.654;3.884;2024-02-21T10:38:33;3.22;;;1.40;;
79456;SDS011;69494;43.654;3.884;2024-02-21T10:40:59;4.10;;;1.17;;
79456;SDS011;69494;43.654;3.884;2024-02-21T10:43:28;2.92;;;1.00;;
79456;SDS011;69494;43.654;3.884;2024-02-21T10:45:59;2.58;;;1.08;;
79456;SDS011;69494;43.654;3.884;2024-02-21T10:48:29;1.67;;;0.73;;
79456;SDS011;69494;43.654;3.884;2024-02-21T10:51:15;1.10;;;0.65;;
79456;SDS011;69494;43.654;3.884;2024-02-21T10:53:47;2.75;;;1.05;;
79456;SDS011;69494;43.654;3.884;2024-02-21T10:59:00;3.22;;;0.73;;
79456;SDS011;69494;43.654;3.884;2024-02-21T11:01:27;3.70;;;1.33;;
79456;SDS011;69494;43.654;3.884;2024-02-21T11:03:55;2.50;;;1.05;;
79456;SDS011;69494;43.654;3.884;2024-02-21T11:06:22;4.25;;;1.17;;
79456;SDS011;69494;43.654;3.884;2024-02-21T11:08:59;3.10;;;1.23;;
79456;SDS011;69494;43.654;3.884;2024-02-21T11:11:29;3.13;;;1.20;;
79456;SDS011;69494;43.654;3.884;2024-02-21T11:14:07;3.30;;;1.20;;
79456;SDS011;69494;43.654;3.884;2024-02-21T11:16:37;2.35;;;0.90;;
79456;SDS011;69494;43.654;3.884;2024-02-21T11:19:08;2.03;;;0.90;;
79456;SDS011;69494;43.654;3.884;2024-02-21T11:21:36;5.05;;;1.23;;
79456;SDS011;69494;43.654;3.884;2024-02-21T11:24:05;2.35;;;0.90;;
79456;SDS011;69494;43.654;3.884;2024-02-21T11:26:31;2.58;;;1.02;;
79456;SDS011;69494;43.654;3.884;2024-02-21T11:28:58;2.08;;;0.73;;
79456;SDS011;69494;43.654;3.884;2024-02-21T11:31:40;5.03;;;1.55;;
79456;SDS011;69494;43.654;3.884;2024-02-21T11:34:13;1.80;;;0.60;;
79456;SDS011;69494;43.654;3.884;2024-02-21T11:36:49;4.45;;;1.30;;
79456;SDS011;69494;43.654;3.884;2024-02-21T11:39:19;5.25;;;1.80;;
79456;SDS011;69494;43.654;3.884;2024-02-21T11:41:47;4.22;;;1.35;;
79456;SDS011;69494;43.654;3.884;2024-02-21T11:44:13;1.67;;;0.93;;
79456;SDS011;69494;43.654;3.884;2024-02-21T11:46:38;4.15;;;1.42;;
79456;SDS011;69494;43.654;3.884;2024-02-21T11:49:04;2.63;;;1.02;;
79456;SDS011;69494;43.654;3.884;2024-02-21T11:51:30;5.50;;;1.88;;
79456;SDS011;69494;43.654;3.884;2024-02-21T11:53:55;4.45;;;1.75;;
79456;SDS011;69494;43.654;3.884;2024-02-21T11:56:20;3.40;;;1.10;;
79456;SDS011;69494;43.654;3.884;2024-02-21T11:58:47;3.72;;;1.65;;
79456;SDS011;69494;43.654;3.884;2024-02-21T12:01:13;4.78;;;1.60;;
79456;SDS011;69494;43.654;3.884;2024-02-21T12:03:39;2.55;;;1.08;;
79456;SDS011;69494;43.654;3.884;2024-02-21T12:08:41;3.25;;;1.20;;
79456;SDS011;69494;43.654;3.884;2024-02-21T12:11:19;2.72;;;1.10;;
79456;SDS011;69494;43.654;3.884;2024-02-21T12:13:46;4.05;;;1.50;;
79456;SDS011;69494;43.654;3.884;2024-02-21T12:16:14;3.88;;;1.45;;
79456;SDS011;69494;43.654;3.884;2024-02-21T12:18:41;7.72;;;2.10;;
79456;SDS011;69494;43.654;3.884;2024-02-21T12:21:07;4.50;;;1.58;;
79456;SDS011;69494;43.654;3.884;2024-02-21T12:23:32;4.75;;;1.80;;
79456;SDS011;69494;43.654;3.884;2024-02-21T12:25:58;5.95;;;1.75;;
79456;SDS011;69494;43.654;3.884;2024-02-21T12:28:24;4.95;;;1.77;;
79456;SDS011;69494;43.654;3.884;2024-02-21T12:30:49;3.95;;;1.50;;
79456;SDS011;69494;43.654;3.884;2024-02-21T12:33:15;3.67;;;1.63;;
79456;SDS011;69494;43.654;3.884;2024-02-21T12:35:40;3.47;;;1.25;;
79456;SDS011;69494;43.654;3.884;2024-02-21T12:38:06;4.47;;;1.45;;
79456;SDS011;69494;43.654;3.884;2024-02-21T12:40:31;2.45;;;0.85;;
79456;SDS011;69494;43.654;3.884;2024-02-21T12:42:59;2.90;;;1.23;;
79456;SDS011;69494;43.654;3.884;2024-02-21T12:45:25;2.85;;;1.38;;
79456;SDS011;69494;43.654;3.884;2024-02-21T12:47:50;4.55;;;1.50;;
79456;SDS011;69494;43.654;3.884;2024-02-21T12:50:16;2.97;;;1.23;;
79456;SDS011;69494;43.654;3.884;2024-02-21T12:52:41;5.20;;;1.73;;
79456;SDS011;69494;43.654;3.884;2024-02-21T12:55:06;4.65;;;1.40;;
79456;SDS011;69494;43.654;3.884;2024-02-21T12:57:35;3.78;;;1.30;;
79456;SDS011;69494;43.654;3.884;2024-02-21T13:00:00;3.15;;;1.30;;
79456;SDS011;69494;43.654;3.884;2024-02-21T13:02:25;6.47;;;2.28;;
79456;SDS011;69494;43.654;3.884;2024-02-21T13:04:51;3.25;;;0.98;;
79456;SDS011;69494;43.654;3.884;2024-02-21T13:07:16;6.10;;;0.82;;
79456;SDS011;69494;43.654;3.884;2024-02-21T13:09:42;3.05;;;0.85;;
79456;SDS011;69494;43.654;3.884;2024-02-21T13:12:07;5.07;;;1.70;;
79456;SDS011;69494;43.654;3.884;2024-02-21T13:14:33;4.28;;;1.58;;
79456;SDS011;69494;43.654;3.884;2024-02-21T13:19:25;3.83;;;1.30;;
79456;SDS011;69494;43.654;3.884;2024-02-21T13:21:50;6.05;;;2.05;;
79456;SDS011;69494;43.654;3.884;2024-02-21T13:24:16;2.53;;;0.85;;
79456;SDS011;69494;43.654;3.884;2024-02-21T13:26:41;4.70;;;1.73;;
79456;SDS011;69494;43.654;3.884;2024-02-21T13:29:06;4.47;;;1.65;;
79456;SDS011;69494;43.654;3.884;2024-02-21T13:31:32;4.57;;;1.35;;
79456;SDS011;69494;43.654;3.884;2024-02-21T13:33:57;8.32;;;2.10;;
79456;SDS011;69494;43.654;3.884;2024-02-21T13:36:22;4.05;;;1.38;;
79456;SDS011;69494;43.654;3.884;2024-02-21T13:38:48;4.63;;;1.30;;
79456;SDS011;69494;43.654;3.884;2024-02-21T13:41:16;5.18;;;1.60;;
79456;SDS011;69494;43.654;3.884;2024-02-21T13:43:42;5.05;;;1.50;;
79456;SDS011;69494;43.654;3.884;2024-02-21T13:46:08;5.97;;;1.83;;
79456;SDS011;69494;43.654;3.884;2024-02-21T13:48:36;7.88;;;2.03;;
79456;SDS011;69494;43.654;3.884;2024-02-21T13:51:02;3.15;;;1.33;;
79456;SDS011;69494;43.654;3.884;2024-02-21T13:53:28;4.82;;;1.70;;
79456;SDS011;69494;43.654;3.884;2024-02-21T13:55:53;4.03;;;1.45;;
79456;SDS011;69494;43.654;3.884;2024-02-21T13:58:19;5.93;;;1.45;;
79456;SDS011;69494;43.654;3.884;2024-02-21T14:00:45;4.65;;;1.30;;
79456;SDS011;69494;43.654;3.884;2024-02-21T14:03:10;3.60;;;1.45;;
79456;SDS011;69494;43.654;3.884;2024-02-21T14:05:35;4.28;;;1.38;;
79456;SDS011;69494;43.654;3.884;2024-02-21T14:08:01;3.63;;;1.50;;
79456;SDS011;69494;43.654;3.884;2024-02-21T14:10:26;5.88;;;1.50;;
79456;SDS011;69494;43.654;3.884;2024-02-21T14:12:53;4.35;;;1.33;;
79456;SDS011;69494;43.654;3.884;2024-02-21T14:15:19;5.00;;;1.63;;
79456;SDS011;69494;43.654;3.884;2024-02-21T14:17:44;5.60;;;1.50;;
79456;SDS011;69494;43.654;3.884;2024-02-21T14:20:09;3.72;;;0.98;;
79456;SDS011;69494;43.654;3.884;2024-02-21T14:22:35;5.63;;;1.95;;
79456;SDS011;69494;43.654;3.884;2024-02-21T14:25:03;3.90;;;1.40;;
79456;SDS011;69494;43.654;3.884;2024-02-21T14:27:31;5.13;;;1.83;;
79456;SDS011;69494;43.654;3.884;2024-02-21T14:29:57;8.52;;;1.77;;
79456;SDS011;69494;43.654;3.884;2024-02-21T14:32:23;6.22;;;2.17;;
79456;SDS011;69494;43.654;3.884;2024-02-21T14:34:48;5.32;;;1.75;;
79456;SDS011;69494;43.654;3.884;2024-02-21T14:37:14;4.82;;;1.35;;
79456;SDS011;69494;43.654;3.884;2024-02-21T14:39:40;4.85;;;1.50;;
79456;SDS011;69494;43.654;3.884;2024-02-21T14:42:06;3.45;;;1.45;;
79456;SDS011;69494;43.654;3.884;2024-02-21T14:44:32;1.77;;;0.98;;
79456;SDS011;69494;43.654;3.884;2024-02-21T14:47:00;4.22;;;1.80;;
79456;SDS011;69494;43.654;3.884;2024-02-21T14:49:25;2.03;;;0.77;;
79456;SDS011;69494;43.654;3.884;2024-02-21T14:51:52;6.07;;;2.17;;
79456;SDS011;69494;43.654;3.884;2024-02-21T14:54:17;4.53;;;1.80;;
79456;SDS011;69494;43.654;3.884;2024-02-21T14:56:44;3.95;;;1.48;;
79456;SDS011;69494;43.654;3.884;2024-02-21T14:59:11;3.20;;;1.10;;
79456;SDS011;69494;43.654;3.884;2024-02-21T15:01:37;6.80;;;1.70;;